sensor_id;sensor_type;location;lat;lon;timestamp;pressure;altitude;pressure_sealevel;temperature;humidity
3096;BME280;1558;42.700;23.360;2023-06-14T00:00:04;95048.16;;;16.38;100.00
3096;BME280;1558;42.700;23.360;2023-06-14T00:02:34;95044.69;;;16.41;100.00
3096;BME280;1558;42.700;23.360;2023-06-14T00:05:03;95050.47;;;16.36;100.00
3096;BME280;1558;42.700;23.360;2023-06-14T00:07:37;95049.06;;;16.49;100.00
3096;BME280;1558;42.700;23.360;2023-06-14T00:10:10;95045.09;;;16.43;100.00
3096;BME280;1558;42.700;23.360;2023-06-14T00:12:39;95040.56;;;16.17;100.00
3096;BME280;1558;42.700;23.360;2023-06-14T00:15:07;95036.31;;;16.20;100.00
3096;BME280;1558;42.700;23.360;2023-06-14T00:17:37;95029.34;;;16.22;100.00
3096;BME280;1558;42.700;23.360;2023-06-14T00:20:06;95028.66;;;16.33;100.00
3096;BME280;1558;42.700;23.360;2023-06-14T00:22:36;95032.66;;;16.42;100.00
3096;BME280;1558;42.700;23.360;2023-06-14T00:25:06;95028.50;;;16.52;100.00
3096;BME280;1558;42.700;23.360;2023-06-14T00:27:54;95033.16;;;16.51;100.00
3096;BME280;1558;42.700;23.360;2023-06-14T00:30:22;95027.22;;;16.46;100.00
3096;BME280;1558;42.700;23.360;2023-06-14T00:32:50;95026.63;;;16.63;100.00
3096;BME280;1558;42.700;23.360;2023-06-14T00:35:19;95024.31;;;16.65;100.00
3096;BME280;1558;42.700;23.360;2023-06-14T00:37:48;95026.59;;;16.59;100.00
3096;BME280;1558;42.700;23.360;2023-06-14T00:40:17;95022.72;;;16.57;100.00
3096;BME280;1558;42.700;23.360;2023-06-14T00:42:45;95025.69;;;16.48;100.00
3096;BME280;1558;42.700;23.360;2023-06-14T00:45:13;95015.19;;;16.50;100.00
3096;BME280;1558;42.700;23.360;2023-06-14T00:47:41;95021.88;;;16.53;100.00
3096;BME280;1558;42.700;23.360;2023-06-14T00:50:11;95013.75;;;16.56;100.00
3096;BME280;1558;42.700;23.360;2023-06-14T00:52:40;95007.13;;;16.57;100.00
3096;BME280;1558;42.700;23.360;2023-06-14T00:55:09;95015.69;;;16.56;100.00
3096;BME280;1558;42.700;23.360;2023-06-14T00:57:38;95017.22;;;16.53;100.00
3096;BME280;1558;42.700;23.360;2023-06-14T01:00:07;95021.50;;;16.54;100.00
3096;BME280;1558;42.700;23.360;2023-06-14T01:02:37;95010.19;;;16.52;100.00
3096;BME280;1558;42.700;23.360;2023-06-14T01:05:06;95009.75;;;16.50;100.00
3096;BME280;1558;42.700;23.360;2023-06-14T01:07:44;95012.41;;;16.43;100.00
3096;BME280;1558;42.700;23.360;2023-06-14T01:10:25;95012.34;;;16.36;100.00
3096;BME280;1558;42.700;23.360;2023-06-14T01:13:05;95022.44;;;16.32;100.00
3096;BME280;1558;42.700;23.360;2023-06-14T01:15:36;95013.06;;;16.30;100.00
3096;BME280;1558;42.700;23.360;2023-06-14T01:18:05;95019.31;;;16.30;100.00
3096;BME280;1558;42.700;23.360;2023-06-14T01:20:33;95014.59;;;16.27;100.00
3096;BME280;1558;42.700;23.360;2023-06-14T01:23:06;95017.78;;;16.36;100.00
3096;BME280;1558;42.700;23.360;2023-06-14T01:25:34;95018.59;;;16.37;100.00
3096;BME280;1558;42.700;23.360;2023-06-14T01:28:06;95018.94;;;16.32;100.00
3096;BME280;1558;42.700;23.360;2023-06-14T01:30:38;95015.78;;;16.30;100.00
3096;BME280;1558;42.700;23.360;2023-06-14T01:33:12;95012.34;;;16.33;100.00
3096;BME280;1558;42.700;23.360;2023-06-14T01:35:43;95013.53;;;16.35;100.00
3096;BME280;1558;42.700;23.360;2023-06-14T01:38:13;95008.41;;;16.30;100.00
3096;BME280;1558;42.700;23.360;2023-06-14T01:40:42;95013.06;;;16.30;100.00
3096;BME280;1558;42.700;23.360;2023-06-14T01:43:13;95012.28;;;16.29;100.00
3096;BME280;1558;42.700;23.360;2023-06-14T01:45:42;95011.88;;;16.27;100.00
3096;BME280;1558;42.700;23.360;2023-06-14T01:48:11;95004.88;;;16.26;100.00
3096;BME280;1558;42.700;23.360;2023-06-14T01:50:41;95011.50;;;16.28;100.00
3096;BME280;1558;42.700;23.360;2023-06-14T01:53:09;95003.78;;;16.34;100.00
3096;BME280;1558;42.700;23.360;2023-06-14T01:55:39;95015.06;;;16.33;100.00
3096;BME280;1558;42.700;23.360;2023-06-14T01:58:10;95008.50;;;16.37;100.00
3096;BME280;1558;42.700;23.360;2023-06-14T02:00:38;95016.19;;;16.32;100.00
3096;BME280;1558;42.700;23.360;2023-06-14T02:03:07;95009.09;;;16.20;100.00
3096;BME280;1558;42.700;23.360;2023-06-14T02:05:35;95015.53;;;16.05;100.00
3096;BME280;1558;42.700;23.360;2023-06-14T02:08:05;95026.00;;;15.99;100.00
3096;BME280;1558;42.700;23.360;2023-06-14T02:10:34;95025.06;;;15.88;100.00
3096;BME280;1558;42.700;23.360;2023-06-14T02:13:04;95028.19;;;15.90;100.00
3096;BME280;1558;42.700;23.360;2023-06-14T02:15:32;95035.22;;;15.91;100.00
3096;BME280;1558;42.700;23.360;2023-06-14T02:18:02;95040.06;;;16.08;100.00
3096;BME280;1558;42.700;23.360;2023-06-14T02:20:31;95036.47;;;15.97;100.00
3096;BME280;1558;42.700;23.360;2023-06-14T02:22:59;95038.56;;;16.11;100.00
3096;BME280;1558;42.700;23.360;2023-06-14T02:25:28;95034.41;;;16.24;100.00
3096;BME280;1558;42.700;23.360;2023-06-14T02:27:56;95035.03;;;16.10;100.00
3096;BME280;1558;42.700;23.360;2023-06-14T02:30:25;95044.69;;;16.04;100.00
3096;BME280;1558;42.700;23.360;2023-06-14T02:32:53;95050.81;;;15.98;100.00
3096;BME280;1558;42.700;23.360;2023-06-14T02:35:21;95050.47;;;15.99;100.00
3096;BME280;1558;42.700;23.360;2023-06-14T02:37:53;95041.47;;;15.95;100.00
3096;BME280;1558;42.700;23.360;2023-06-14T02:40:21;95048.72;;;15.84;100.00
3096;BME280;1558;42.700;23.360;2023-06-14T02:42:50;95043.00;;;15.93;100.00
3096;BME280;1558;42.700;23.360;2023-06-14T02:45:18;95044.16;;;15.92;100.00
3096;BME280;1558;42.700;23.360;2023-06-14T02:47:49;95046.06;;;15.88;100.00
3096;BME280;1558;42.700;23.360;2023-06-14T02:50:19;95047.22;;;15.87;100.00
3096;BME280;1558;42.700;23.360;2023-06-14T02:52:48;95040.50;;;15.77;100.00
3096;BME280;1558;42.700;23.360;2023-06-14T02:55:16;95044.00;;;15.78;100.00
3096;BME280;1558;42.700;23.360;2023-06-14T02:57:44;95046.00;;;15.81;100.00
3096;BME280;1558;42.700;23.360;2023-06-14T03:00:14;95040.44;;;15.74;100.00
3096;BME280;1558;42.700;23.360;2023-06-14T03:02:43;95042.31;;;15.66;100.00
3096;BME280;1558;42.700;23.360;2023-06-14T03:05:14;95059.19;;;15.82;100.00
3096;BME280;1558;42.700;23.360;2023-06-14T03:07:42;95048.34;;;15.86;100.00
3096;BME280;1558;42.700;23.360;2023-06-14T03:10:11;95056.19;;;15.91;100.00
3096;BME280;1558;42.700;23.360;2023-06-14T03:12:40;95060.81;;;15.87;100.00
3096;BME280;1558;42.700;23.360;2023-06-14T03:15:09;95061.94;;;15.86;100.00
3096;BME280;1558;42.700;23.360;2023-06-14T03:17:40;95060.03;;;15.86;100.00
3096;BME280;1558;42.700;23.360;2023-06-14T03:20:14;95055.28;;;15.80;100.00
3096;BME280;1558;42.700;23.360;2023-06-14T03:22:43;95056.50;;;15.86;100.00
3096;BME280;1558;42.700;23.360;2023-06-14T03:25:12;95062.31;;;15.81;100.00
3096;BME280;1558;42.700;23.360;2023-06-14T03:27:42;95063.94;;;15.89;100.00
3096;BME280;1558;42.700;23.360;2023-06-14T03:30:10;95066.66;;;15.89;100.00
3096;BME280;1558;42.700;23.360;2023-06-14T03:32:39;95067.84;;;15.91;100.00
3096;BME280;1558;42.700;23.360;2023-06-14T03:35:07;95064.59;;;15.79;100.00
3096;BME280;1558;42.700;23.360;2023-06-14T03:37:38;95060.72;;;15.80;100.00
3096;BME280;1558;42.700;23.360;2023-06-14T03:40:06;95060.81;;;15.87;100.00
3096;BME280;1558;42.700;23.360;2023-06-14T03:42:35;95067.47;;;15.93;100.00
3096;BME280;1558;42.700;23.360;2023-06-14T03:45:04;95074.88;;;15.92;100.00
3096;BME280;1558;42.700;23.360;2023-06-14T03:47:33;95064.59;;;15.79;100.00
3096;BME280;1558;42.700;23.360;2023-06-14T03:50:04;95065.47;;;15.86;100.00
3096;BME280;1558;42.700;23.360;2023-06-14T03:52:33;95072.41;;;15.84;100.00
3096;BME280;1558;42.700;23.360;2023-06-14T03:55:03;95064.19;;;15.77;100.00
3096;BME280;1558;42.700;23.360;2023-06-14T03:57:34;95075.44;;;15.75;100.00
3096;BME280;1558;42.700;23.360;2023-06-14T04:00:02;95079.44;;;15.85;100.00
3096;BME280;1558;42.700;23.360;2023-06-14T04:02:32;95072.97;;;15.96;100.00
3096;BME280;1558;42.700;23.360;2023-06-14T04:05:00;95076.47;;;15.97;100.00
3096;BME280;1558;42.700;23.360;2023-06-14T04:07:30;95078.44;;;16.00;100.00
3096;BME280;1558;42.700;23.360;2023-06-14T04:09:58;95081.00;;;15.86;100.00
3096;BME280;1558;42.700;23.360;2023-06-14T04:12:28;95076.97;;;16.06;100.00
3096;BME280;1558;42.700;23.360;2023-06-14T04:14:56;95089.16;;;16.19;100.00
3096;BME280;1558;42.700;23.360;2023-06-14T04:17:41;95082.31;;;16.32;100.00
3096;BME280;1558;42.700;23.360;2023-06-14T04:20:10;95077.69;;;16.36;100.00
3096;BME280;1558;42.700;23.360;2023-06-14T04:22:56;95078.25;;;16.52;100.00
3096;BME280;1558;42.700;23.360;2023-06-14T04:25:24;95068.47;;;16.48;100.00
3096;BME280;1558;42.700;23.360;2023-06-14T04:27:57;95079.84;;;16.53;100.00
3096;BME280;1558;42.700;23.360;2023-06-14T04:30:25;95081.91;;;16.63;100.00
3096;BME280;1558;42.700;23.360;2023-06-14T04:32:58;95079.19;;;16.67;100.00
3096;BME280;1558;42.700;23.360;2023-06-14T04:35:26;95087.47;;;16.77;100.00
3096;BME280;1558;42.700;23.360;2023-06-14T04:37:55;95084.53;;;16.97;100.00
3096;BME280;1558;42.700;23.360;2023-06-14T04:40:24;95082.16;;;16.91;100.00
3096;BME280;1558;42.700;23.360;2023-06-14T04:42:52;95076.69;;;16.91;100.00
3096;BME280;1558;42.700;23.360;2023-06-14T04:45:22;95081.75;;;16.89;100.00
3096;BME280;1558;42.700;23.360;2023-06-14T04:47:51;95082.94;;;16.96;100.00
3096;BME280;1558;42.700;23.360;2023-06-14T04:50:22;95084.59;;;17.07;100.00
3096;BME280;1558;42.700;23.360;2023-06-14T04:52:52;95096.38;;;17.18;100.00
3096;BME280;1558;42.700;23.360;2023-06-14T04:55:21;95087.03;;;17.19;100.00
3096;BME280;1558;42.700;23.360;2023-06-14T04:57:50;95082.75;;;17.22;100.00
3096;BME280;1558;42.700;23.360;2023-06-14T05:00:21;95096.44;;;17.29;100.00
3096;BME280;1558;42.700;23.360;2023-06-14T05:02:50;95098.91;;;17.44;100.00
3096;BME280;1558;42.700;23.360;2023-06-14T05:05:20;95082.84;;;17.32;100.00
3096;BME280;1558;42.700;23.360;2023-06-14T05:07:48;95101.63;;;17.48;100.00
3096;BME280;1558;42.700;23.360;2023-06-14T05:10:16;95096.78;;;17.75;100.00
3096;BME280;1558;42.700;23.360;2023-06-14T05:12:44;95103.44;;;17.84;100.00
3096;BME280;1558;42.700;23.360;2023-06-14T05:15:14;95105.38;;;17.84;100.00
3096;BME280;1558;42.700;23.360;2023-06-14T05:17:45;95100.75;;;17.91;100.00
3096;BME280;1558;42.700;23.360;2023-06-14T05:20:14;95102.38;;;17.99;100.00
3096;BME280;1558;42.700;23.360;2023-06-14T05:22:42;95102.72;;;17.98;100.00
3096;BME280;1558;42.700;23.360;2023-06-14T05:25:11;95106.31;;;18.09;100.00
3096;BME280;1558;42.700;23.360;2023-06-14T05:27:39;95089.09;;;17.98;100.00
3096;BME280;1558;42.700;23.360;2023-06-14T05:30:09;95121.09;;;18.11;100.00
3096;BME280;1558;42.700;23.360;2023-06-14T05:32:38;95119.56;;;18.10;100.00
3096;BME280;1558;42.700;23.360;2023-06-14T05:35:08;95135.16;;;18.06;100.00
3096;BME280;1558;42.700;23.360;2023-06-14T05:37:37;95129.69;;;18.06;100.00
3096;BME280;1558;42.700;23.360;2023-06-14T05:40:06;95126.91;;;17.92;100.00
3096;BME280;1558;42.700;23.360;2023-06-14T05:42:35;95124.91;;;17.93;100.00
3096;BME280;1558;42.700;23.360;2023-06-14T05:45:04;95126.56;;;18.11;100.00
3096;BME280;1558;42.700;23.360;2023-06-14T05:47:33;95127.41;;;18.26;100.00
3096;BME280;1558;42.700;23.360;2023-06-14T05:50:04;95081.31;;;18.03;100.00
3096;BME280;1558;42.700;23.360;2023-06-14T05:52:36;95131.44;;;18.50;100.00
3096;BME280;1558;42.700;23.360;2023-06-14T05:55:05;95137.22;;;18.45;100.00
3096;BME280;1558;42.700;23.360;2023-06-14T05:57:33;95131.38;;;18.39;100.00
3096;BME280;1558;42.700;23.360;2023-06-14T06:00:03;95134.59;;;18.59;100.00
3096;BME280;1558;42.700;23.360;2023-06-14T06:02:40;95129.94;;;18.73;100.00
3096;BME280;1558;42.700;23.360;2023-06-14T06:05:10;95129.94;;;18.77;100.00
3096;BME280;1558;42.700;23.360;2023-06-14T06:07:39;95124.06;;;18.64;100.00
3096;BME280;1558;42.700;23.360;2023-06-14T06:10:09;95137.78;;;18.82;100.00
3096;BME280;1558;42.700;23.360;2023-06-14T06:12:37;95140.53;;;18.96;100.00
3096;BME280;1558;42.700;23.360;2023-06-14T06:15:06;95132.34;;;19.10;100.00
3096;BME280;1558;42.700;23.360;2023-06-14T06:17:34;95138.97;;;19.09;100.00
3096;BME280;1558;42.700;23.360;2023-06-14T06:20:21;95129.22;;;19.26;100.00
3096;BME280;1558;42.700;23.360;2023-06-14T06:22:58;95149.56;;;19.49;100.00
3096;BME280;1558;42.700;23.360;2023-06-14T06:25:27;95132.34;;;19.31;100.00
3096;BME280;1558;42.700;23.360;2023-06-14T06:27:58;95144.06;;;19.21;100.00
3096;BME280;1558;42.700;23.360;2023-06-14T06:30:26;95145.63;;;19.26;100.00
3096;BME280;1558;42.700;23.360;2023-06-14T06:32:54;95140.97;;;19.40;100.00
3096;BME280;1558;42.700;23.360;2023-06-14T06:35:23;95148.00;;;19.38;100.00
3096;BME280;1558;42.700;23.360;2023-06-14T06:37:51;95137.41;;;19.05;100.00
3096;BME280;1558;42.700;23.360;2023-06-14T06:40:21;95151.84;;;18.98;100.00
3096;BME280;1558;42.700;23.360;2023-06-14T06:42:49;95165.53;;;18.98;100.00
3096;BME280;1558;42.700;23.360;2023-06-14T06:45:17;95135.06;;;18.96;100.00
3096;BME280;1558;42.700;23.360;2023-06-14T06:47:45;95147.97;;;19.20;100.00
3096;BME280;1558;42.700;23.360;2023-06-14T06:50:15;95158.91;;;19.31;100.00
3096;BME280;1558;42.700;23.360;2023-06-14T06:52:43;95160.47;;;19.21;100.00
3096;BME280;1558;42.700;23.360;2023-06-14T06:55:12;95160.47;;;19.21;100.00
3096;BME280;1558;42.700;23.360;2023-06-14T06:57:42;95164.38;;;19.03;100.00
3096;BME280;1558;42.700;23.360;2023-06-14T07:00:11;95168.66;;;19.07;100.00
3096;BME280;1558;42.700;23.360;2023-06-14T07:02:40;95143.66;;;18.98;100.00
3096;BME280;1558;42.700;23.360;2023-06-14T07:05:08;95143.69;;;19.23;100.00
3096;BME280;1558;42.700;23.360;2023-06-14T07:07:36;95170.69;;;19.45;100.00
3096;BME280;1558;42.700;23.360;2023-06-14T07:10:05;95160.91;;;19.41;100.00
3096;BME280;1558;42.700;23.360;2023-06-14T07:12:34;95167.56;;;19.50;100.00
3096;BME280;1558;42.700;23.360;2023-06-14T07:15:09;95175.38;;;19.70;100.00
3096;BME280;1558;42.700;23.360;2023-06-14T07:17:38;95173.34;;;20.02;100.00
3096;BME280;1558;42.700;23.360;2023-06-14T07:20:10;95176.38;;;20.53;100.00
3096;BME280;1558;42.700;23.360;2023-06-14T07:22:43;95168.00;;;21.47;100.00
3096;BME280;1558;42.700;23.360;2023-06-14T07:25:13;95159.31;;;22.00;100.00
3096;BME280;1558;42.700;23.360;2023-06-14T07:27:44;95155.78;;;22.37;100.00
3096;BME280;1558;42.700;23.360;2023-06-14T07:30:14;95139.97;;;23.08;100.00
3096;BME280;1558;42.700;23.360;2023-06-14T07:32:42;95145.31;;;24.15;100.00
3096;BME280;1558;42.700;23.360;2023-06-14T07:35:11;95132.66;;;25.48;100.00
3096;BME280;1558;42.700;23.360;2023-06-14T07:37:39;95099.22;;;25.10;100.00
3096;BME280;1558;42.700;23.360;2023-06-14T07:40:09;95124.47;;;25.09;100.00
3096;BME280;1558;42.700;23.360;2023-06-14T07:42:37;95124.81;;;24.16;100.00
3096;BME280;1558;42.700;23.360;2023-06-14T07:45:06;95122.72;;;23.54;100.00
3096;BME280;1558;42.700;23.360;2023-06-14T07:47:36;95128.06;;;23.65;100.00
3096;BME280;1558;42.700;23.360;2023-06-14T07:50:05;95123.91;;;24.62;100.00
3096;BME280;1558;42.700;23.360;2023-06-14T07:52:33;95121.78;;;25.57;100.00
3096;BME280;1558;42.700;23.360;2023-06-14T07:55:01;95124.34;;;26.12;98.20
3096;BME280;1558;42.700;23.360;2023-06-14T07:57:31;95126.03;;;26.06;91.01
3096;BME280;1558;42.700;23.360;2023-06-14T07:59:59;95125.38;;;25.22;92.57
3096;BME280;1558;42.700;23.360;2023-06-14T08:02:27;95125.06;;;25.52;88.76
3096;BME280;1558;42.700;23.360;2023-06-14T08:04:57;95122.78;;;25.15;87.46
3096;BME280;1558;42.700;23.360;2023-06-14T08:07:25;95134.44;;;26.19;87.59
3096;BME280;1558;42.700;23.360;2023-06-14T08:09:53;95133.47;;;27.08;80.87
3096;BME280;1558;42.700;23.360;2023-06-14T08:12:22;95141.53;;;25.88;80.23
3096;BME280;1558;42.700;23.360;2023-06-14T08:14:50;95144.47;;;24.38;82.61
3096;BME280;1558;42.700;23.360;2023-06-14T08:17:38;95147.16;;;23.75;89.02
3096;BME280;1558;42.700;23.360;2023-06-14T08:20:09;95147.59;;;23.50;94.37
3096;BME280;1558;42.700;23.360;2023-06-14T08:22:38;95152.56;;;23.59;95.98
3096;BME280;1558;42.700;23.360;2023-06-14T08:25:09;95145.72;;;23.44;96.01
3096;BME280;1558;42.700;23.360;2023-06-14T08:27:38;95146.34;;;23.55;95.13
3096;BME280;1558;42.700;23.360;2023-06-14T08:30:25;95154.88;;;24.69;91.34
3096;BME280;1558;42.700;23.360;2023-06-14T08:32:53;95150.50;;;25.43;82.12
3096;BME280;1558;42.700;23.360;2023-06-14T08:35:42;95157.84;;;25.34;79.23
3096;BME280;1558;42.700;23.360;2023-06-14T08:38:10;95157.28;;;24.87;77.89
3096;BME280;1558;42.700;23.360;2023-06-14T08:40:42;95155.66;;;24.50;80.16
3096;BME280;1558;42.700;23.360;2023-06-14T08:43:14;95151.53;;;24.19;79.57
3096;BME280;1558;42.700;23.360;2023-06-14T08:45:48;95137.88;;;24.12;81.75
3096;BME280;1558;42.700;23.360;2023-06-14T08:48:23;95125.56;;;24.75;82.01
3096;BME280;1558;42.700;23.360;2023-06-14T08:50:59;95135.53;;;26.05;74.43
3096;BME280;1558;42.700;23.360;2023-06-14T08:53:30;95134.63;;;26.69;71.96
3096;BME280;1558;42.700;23.360;2023-06-14T08:56:05;95129.38;;;27.00;69.01
3096;BME280;1558;42.700;23.360;2023-06-14T08:58:34;95125.88;;;27.97;68.28
3096;BME280;1558;42.700;23.360;2023-06-14T09:01:03;95115.38;;;28.04;63.55
3096;BME280;1558;42.700;23.360;2023-06-14T09:03:32;95129.84;;;28.21;65.02
3096;BME280;1558;42.700;23.360;2023-06-14T09:06:01;95132.13;;;27.88;62.30
3096;BME280;1558;42.700;23.360;2023-06-14T09:08:32;95133.06;;;28.19;61.85
3096;BME280;1558;42.700;23.360;2023-06-14T09:11:01;95121.91;;;27.98;63.22
3096;BME280;1558;42.700;23.360;2023-06-14T09:13:30;95128.72;;;27.21;63.69
3096;BME280;1558;42.700;23.360;2023-06-14T09:15:58;95129.28;;;27.41;63.45
3096;BME280;1558;42.700;23.360;2023-06-14T09:18:34;95126.38;;;27.32;63.04
3096;BME280;1558;42.700;23.360;2023-06-14T09:21:05;95119.31;;;25.91;66.03
3096;BME280;1558;42.700;23.360;2023-06-14T09:23:37;95124.03;;;25.62;67.95
3096;BME280;1558;42.700;23.360;2023-06-14T09:26:08;95118.00;;;24.79;72.04
3096;BME280;1558;42.700;23.360;2023-06-14T09:28:41;95130.00;;;25.09;70.87
3096;BME280;1558;42.700;23.360;2023-06-14T09:31:13;95099.25;;;24.91;73.37
3096;BME280;1558;42.700;23.360;2023-06-14T09:33:42;95117.59;;;25.33;72.48
3096;BME280;1558;42.700;23.360;2023-06-14T09:36:17;95112.06;;;25.17;73.84
3096;BME280;1558;42.700;23.360;2023-06-14T09:38:51;95118.13;;;26.37;72.87
3096;BME280;1558;42.700;23.360;2023-06-14T09:41:20;95122.28;;;26.58;68.72
3096;BME280;1558;42.700;23.360;2023-06-14T09:43:48;95111.66;;;27.23;65.68
3096;BME280;1558;42.700;23.360;2023-06-14T09:46:18;95116.09;;;27.20;62.40
3096;BME280;1558;42.700;23.360;2023-06-14T09:48:46;95103.31;;;27.10;61.35
3096;BME280;1558;42.700;23.360;2023-06-14T09:51:16;95098.69;;;27.32;62.30
3096;BME280;1558;42.700;23.360;2023-06-14T09:53:48;95098.59;;;28.30;61.45
3096;BME280;1558;42.700;23.360;2023-06-14T09:56:22;95103.81;;;29.45;58.28
3096;BME280;1558;42.700;23.360;2023-06-14T09:58:55;95101.06;;;28.93;57.80
3096;BME280;1558;42.700;23.360;2023-06-14T10:01:34;95095.22;;;28.13;57.43
3096;BME280;1558;42.700;23.360;2023-06-14T10:04:04;95094.84;;;26.63;60.99
3096;BME280;1558;42.700;23.360;2023-06-14T10:06:40;95094.44;;;26.36;64.85
3096;BME280;1558;42.700;23.360;2023-06-14T10:09:09;95080.38;;;26.31;64.70
3096;BME280;1558;42.700;23.360;2023-06-14T10:11:38;95092.75;;;25.33;68.68
3096;BME280;1558;42.700;23.360;2023-06-14T10:14:12;95074.16;;;25.01;69.91
3096;BME280;1558;42.700;23.360;2023-06-14T10:16:47;95079.78;;;25.14;71.03
3096;BME280;1558;42.700;23.360;2023-06-14T10:19:20;95073.75;;;25.19;70.33
3096;BME280;1558;42.700;23.360;2023-06-14T10:21:57;95080.94;;;25.48;70.07
3096;BME280;1558;42.700;23.360;2023-06-14T10:24:29;95072.25;;;26.65;67.20
3096;BME280;1558;42.700;23.360;2023-06-14T10:26:59;95074.44;;;26.45;65.31
3096;BME280;1558;42.700;23.360;2023-06-14T10:29:28;95062.53;;;25.58;66.95
3096;BME280;1558;42.700;23.360;2023-06-14T10:32:00;95072.75;;;27.01;67.36
3096;BME280;1558;42.700;23.360;2023-06-14T10:34:31;95065.16;;;28.76;63.68
3096;BME280;1558;42.700;23.360;2023-06-14T10:37:05;95026.25;;;29.47;57.78
3096;BME280;1558;42.700;23.360;2023-06-14T10:39:38;95063.75;;;29.33;56.07
3096;BME280;1558;42.700;23.360;2023-06-14T10:42:07;95030.22;;;29.28;58.10
3096;BME280;1558;42.700;23.360;2023-06-14T10:44:41;95060.13;;;29.64;55.47
3096;BME280;1558;42.700;23.360;2023-06-14T10:47:20;95063.94;;;28.34;57.83
3096;BME280;1558;42.700;23.360;2023-06-14T10:49:51;95041.75;;;27.78;58.66
3096;BME280;1558;42.700;23.360;2023-06-14T10:52:26;95053.25;;;27.17;59.81
3096;BME280;1558;42.700;23.360;2023-06-14T10:54:59;95024.47;;;26.90;62.09
3096;BME280;1558;42.700;23.360;2023-06-14T10:57:28;95040.09;;;26.83;62.56
3096;BME280;1558;42.700;23.360;2023-06-14T11:00:12;95005.00;;;26.27;63.00
3096;BME280;1558;42.700;23.360;2023-06-14T11:05:52;95041.56;;;25.89;63.26
3096;BME280;1558;42.700;23.360;2023-06-14T11:11:23;95030.44;;;27.73;58.80
3096;BME280;1558;42.700;23.360;2023-06-14T11:13:52;95026.59;;;28.04;57.46
3096;BME280;1558;42.700;23.360;2023-06-14T11:16:26;95027.44;;;28.14;58.31
3096;BME280;1558;42.700;23.360;2023-06-14T11:18:55;95025.09;;;28.87;54.63
3096;BME280;1558;42.700;23.360;2023-06-14T11:21:24;95032.25;;;28.44;55.50
3096;BME280;1558;42.700;23.360;2023-06-14T11:23:57;95025.28;;;28.61;53.77
3096;BME280;1558;42.700;23.360;2023-06-14T11:26:27;95004.25;;;27.39;56.60
3096;BME280;1558;42.700;23.360;2023-06-14T11:28:57;95020.50;;;26.37;59.09
3096;BME280;1558;42.700;23.360;2023-06-14T11:31:26;95011.63;;;26.16;61.88
3096;BME280;1558;42.700;23.360;2023-06-14T11:33:55;95010.13;;;27.41;60.79
3096;BME280;1558;42.700;23.360;2023-06-14T11:36:26;95014.56;;;27.86;56.21
3096;BME280;1558;42.700;23.360;2023-06-14T11:39:00;95009.69;;;28.11;55.73
3096;BME280;1558;42.700;23.360;2023-06-14T11:41:36;95011.25;;;28.65;55.88
3096;BME280;1558;42.700;23.360;2023-06-14T11:44:05;95014.81;;;29.05;53.82
3096;BME280;1558;42.700;23.360;2023-06-14T11:46:34;95005.59;;;30.02;52.12
3096;BME280;1558;42.700;23.360;2023-06-14T11:49:02;95000.16;;;29.72;51.50
3096;BME280;1558;42.700;23.360;2023-06-14T11:51:34;94991.91;;;28.52;51.47
3096;BME280;1558;42.700;23.360;2023-06-14T11:54:04;94988.31;;;27.65;53.33
3096;BME280;1558;42.700;23.360;2023-06-14T11:56:34;94992.50;;;27.35;54.54
3096;BME280;1558;42.700;23.360;2023-06-14T11:59:04;94986.00;;;27.17;54.24
3096;BME280;1558;42.700;23.360;2023-06-14T12:01:35;94987.31;;;27.72;54.53
3096;BME280;1558;42.700;23.360;2023-06-14T12:04:05;94982.38;;;26.82;55.46
3096;BME280;1558;42.700;23.360;2023-06-14T12:06:33;94963.09;;;26.66;56.85
3096;BME280;1558;42.700;23.360;2023-06-14T12:09:04;94945.19;;;26.83;57.17
3096;BME280;1558;42.700;23.360;2023-06-14T12:11:35;94963.44;;;27.52;56.44
3096;BME280;1558;42.700;23.360;2023-06-14T12:14:04;94956.91;;;27.46;55.74
3096;BME280;1558;42.700;23.360;2023-06-14T12:16:33;94959.84;;;27.65;56.33
3096;BME280;1558;42.700;23.360;2023-06-14T12:19:09;94961.50;;;27.40;53.19
3096;BME280;1558;42.700;23.360;2023-06-14T12:21:38;94946.72;;;27.43;54.69
3096;BME280;1558;42.700;23.360;2023-06-14T12:24:08;94952.66;;;28.10;54.17
3096;BME280;1558;42.700;23.360;2023-06-14T12:26:41;94936.31;;;28.43;53.20
3096;BME280;1558;42.700;23.360;2023-06-14T12:29:10;94948.03;;;28.07;53.00
3096;BME280;1558;42.700;23.360;2023-06-14T12:31:39;94946.44;;;27.29;55.91
3096;BME280;1558;42.700;23.360;2023-06-14T12:34:08;94949.13;;;27.07;55.24
3096;BME280;1558;42.700;23.360;2023-06-14T12:36:37;94941.06;;;26.50;57.22
3096;BME280;1558;42.700;23.360;2023-06-14T12:39:12;94940.28;;;26.62;57.19
3096;BME280;1558;42.700;23.360;2023-06-14T12:41:41;94936.19;;;26.54;57.85
3096;BME280;1558;42.700;23.360;2023-06-14T12:44:10;94913.38;;;26.37;59.23
3096;BME280;1558;42.700;23.360;2023-06-14T12:46:39;94903.25;;;26.05;57.94
3096;BME280;1558;42.700;23.360;2023-06-14T12:49:09;94902.44;;;25.67;58.59
3096;BME280;1558;42.700;23.360;2023-06-14T12:51:38;94932.81;;;25.96;58.66
3096;BME280;1558;42.700;23.360;2023-06-14T12:54:07;94911.72;;;25.73;58.87
3096;BME280;1558;42.700;23.360;2023-06-14T12:56:35;94927.00;;;25.49;60.07
3096;BME280;1558;42.700;23.360;2023-06-14T12:59:04;94925.22;;;25.71;60.09
3096;BME280;1558;42.700;23.360;2023-06-14T13:01:34;94926.94;;;25.65;59.63
3096;BME280;1558;42.700;23.360;2023-06-14T13:04:02;94930.06;;;25.67;59.68
3096;BME280;1558;42.700;23.360;2023-06-14T13:06:30;94923.31;;;25.68;59.53
3096;BME280;1558;42.700;23.360;2023-06-14T13:08:59;94929.63;;;25.69;59.27
3096;BME280;1558;42.700;23.360;2023-06-14T13:11:28;94924.09;;;26.10;57.26
3096;BME280;1558;42.700;23.360;2023-06-14T13:13:57;94902.38;;;26.08;57.32
3096;BME280;1558;42.700;23.360;2023-06-14T13:16:29;94918.34;;;27.05;57.55
3096;BME280;1558;42.700;23.360;2023-06-14T13:18:57;94878.28;;;26.72;55.00
3096;BME280;1558;42.700;23.360;2023-06-14T13:21:25;94944.31;;;26.07;60.19
3096;BME280;1558;42.700;23.360;2023-06-14T13:23:53;94937.38;;;24.84;68.68
3096;BME280;1558;42.700;23.360;2023-06-14T13:26:22;94949.03;;;24.40;73.62